Juan Jose Paso, Argentina
Current Conditions -  °F | °C
As of 3:00 PM on Saturday 25 Oct 2014 (Local Time) from SAOC Reporting Station
Clear Clear  
Wind Chill: 93°   Ceiling: Unl
Heat Index: 93°   Visibility: 6mi
Dew Point: 55°   Wind: 25mph
Humidity: 28%   Direction: 340°NNW
Pressure: 29.8"   Gusts: 37mph
Location:  35.83°S, 62.27°W
Report Text: SAOC 251800Z 34022G32KT CAVOK 34/13 Q1009
Loading
Personal Weather Stations






























Interactive Weather Map
Tropical Storm Tracking
New forecast layout! Learn more

10-Day Weather Forecast

Advertisements
Track Severe Weather on mobile